Brooklyn, NY

1:34 PM EDT on August 27, 2016 (GMT -0400)
Flatlands | | Change Station

Elev 16 ft 40.62 °N, 73.92 °W | Updated 51 seconds ago

Scattered Clouds
Scattered Clouds
93.0 °F
Feels Like 95 °F
N
1.9
Wind Variable Wind from South
Gusts 4.3 mph

Today
High -- | Low -- °F
--% Chance of Precip.
Yesterday
High -- | Low -- °F
Precip. -- in
Pressure 30.19 in
Visibility 10.0 miles
Clouds Few 7000 ft
Scattered Clouds 25000 ft
Heat Index 95 °F
Dew Point 64 °F
Humidity 38%
Rainfall Not available.
Snow Depth Not available.
6:18 AM 7:34 PM
Waning Crescent, 23% visible
METAR KJFK 271651Z 14013G17KT 10SM FEW070 SCT250 31/16 A3018 RMK AO2 SLP221 T03060156 $
Pressure 30.19 in
Visibility 10.0 miles
Clouds Few 7000 ft
Scattered Clouds 25000 ft
Heat Index 95 °F
Dew Point 64 °F
Humidity 38%
Rainfall Not available.
Snow Depth Not available.
6:18 AM 7:34 PM
Waning Crescent, 23% visible
METAR KJFK 271651Z 14013G17KT 10SM FEW070 SCT250 31/16 A3018 RMK AO2 SLP221 T03060156 $

10-Day Weather Forecast

Almanac

Astronomy

Aug. 27, 2016 Rise Set
Actual Time
Civil Twilight
Nautical Twilight
Astronomical Twilight
Moon
Length of Visible Light
Length of Day
Tomorrow will be .
, % of the Moon is Illuminated

Today's Extremes

State Highs State Lows

Community

WunderPhotos

Upload Photos

1,935,387 photos uploaded!

WunderBlog® & News

Nearby

Air Quality

  Air Quality AQ Index Pollutant
Not available.

Snow Depth

Station Depth Elevation

Earthquake Activity

City Distance Mag. Time & Date
Minimum magnitude displayed is 2.5.

Coastal Water Temperatures

Place Temperature

Stations

Nearby Weather Stations

Station Location Temp. Windchill Dew Point Humidity Wind Precip. Elev Updated Type
                   

Watches & Warnings

There are currently no watches in effect.